Weather at Hamilton House Airstrip

Public forecast

Using degrees Celsius for public forecast. Weather courtesy of forecast.io.

Closest aviation weather report (METAR) to Hamilton House Airstrip

Closest report is RAF Brize Norton, 7.3 nm (13.5 km) NW. Retrieved 2021/10/23 01:50 UTC (11 minutes ago):

EGVN 230150Z 23002KT 9999 BKN046 09/07 Q1025 NOSIG RMK BLU BLU

Closest aviation forecast (TAF) to Hamilton House Airstrip

Closest forecast is RAF Brize Norton, 7.3 nm (13.5 km) NW. Retrieved 2021-10-23 03:42 UTC (0 seconds ago):

TAF TAF EGVN 230133Z 2303/2403 VRB05KT 9999 BKN045 PROB30 2303/2308 4000 BR MIFG PROB30 TEMPO 2311/2316 SCT024